Accueil
METAR-TAF:

METAR-TAF

Aéroports :

Nan, Thaïlande

latitude: 18-46N, longitude: 100-46E, altitude: 200 m

Observation

Le bulletin a été fait il y a 1 heure et 21 minutes, à 00:00 UTC
Vent calme
Température 15°C
Humidité 100%
Pression 1021 hPa
Visibilité 10 km ou plus
pas de nuages en-dessous de 1500 mètres et pas de cumulonimbus.

METAR: VTCN 220000Z 00000KT CAVOK 15/15 Q1021 NOSIG

Heure: 08:21 (01:21 UTC)

Prévision

Le bulletin a été fait il y a 2 heures et 21 minutes, à 23:00 UTC
Prévision valable du 22 à 00 UTC au 22 à 24 UTC
Vent 5 kt de sud/sud-est
Visibilité: 8000 m

TAF: VTCN 212300Z 2200/2224 16005KT 8000 NSC

Observations et prévisions météorologiques de plus de 4000 aéroports (messages METAR et TAF).

Les stations disponibles sont représentées par des disques jaunes et rouges sur la carte.

Passer la souris dessus pour voir le nom de la station.

Cliquer dessus pour voir les observations et prévisions météorologiques.

Pour changer de carte: cliquez sur les boutons verts avec une croix noire pour zoomer, sur le bouton vert avec un tiret pour effectuer un zoom arrière, ou sur les flèches vertes pour les cartes adjacentes.


METAR-TAF: